createdAt,value
2018-04-23T00:02:07.175Z,8.10
2018-04-23T00:04:34.759Z,7.03
2018-04-23T00:07:02.340Z,8.03
2018-04-23T00:09:30.149Z,7.90
2018-04-23T00:11:57.707Z,9.00
2018-04-23T00:14:25.479Z,8.83
2018-04-23T00:16:53.087Z,8.47
2018-04-23T00:19:20.808Z,8.20
2018-04-23T00:21:48.380Z,7.97
2018-04-23T00:24:16.108Z,9.63
2018-04-23T00:26:43.686Z,9.00
2018-04-23T00:29:11.243Z,8.93
2018-04-23T00:31:38.822Z,8.50
2018-04-23T00:34:06.380Z,8.37
2018-04-23T00:36:33.945Z,7.87
2018-04-23T00:39:01.701Z,8.70
2018-04-23T00:41:29.282Z,8.20
2018-04-23T00:43:56.859Z,10.23
2018-04-23T00:46:24.542Z,9.17
2018-04-23T00:48:52.130Z,9.00
2018-04-23T00:51:19.813Z,8.97
2018-04-23T00:53:47.431Z,8.60
2018-04-23T00:56:15.103Z,9.00
2018-04-23T00:58:42.663Z,8.70
2018-04-23T01:01:10.342Z,9.33
2018-04-23T01:03:37.903Z,8.30
2018-04-23T01:06:05.577Z,9.37
2018-04-23T01:08:33.184Z,8.30
2018-04-23T01:11:00.783Z,7.50
2018-04-23T01:13:28.351Z,8.60
2018-04-23T01:15:55.989Z,8.40
2018-04-23T01:18:23.679Z,7.57
2018-04-23T01:20:51.527Z,8.03
2018-04-23T01:23:19.116Z,8.57
2018-04-23T01:25:46.665Z,8.23
2018-04-23T01:28:14.243Z,8.80
2018-04-23T01:30:41.838Z,9.80
2018-04-23T01:33:09.450Z,8.83
2018-04-23T01:35:37.012Z,8.30
2018-04-23T01:38:04.653Z,8.47
2018-04-23T01:40:32.250Z,10.80
2018-04-23T01:42:59.879Z,9.97
2018-04-23T01:45:27.489Z,9.20
2018-04-23T01:47:55.205Z,7.70
2018-04-23T01:50:33.481Z,8.30
2018-04-23T01:53:01.145Z,8.80
2018-04-23T01:55:28.720Z,9.30
2018-04-23T01:57:56.324Z,7.33
2018-04-23T02:00:23.894Z,7.73
2018-04-23T02:02:51.490Z,6.50
2018-04-23T02:05:19.088Z,6.90
2018-04-23T02:07:46.730Z,7.57
2018-04-23T02:10:14.297Z,7.40
2018-04-23T02:12:41.906Z,7.00
2018-04-23T02:15:09.472Z,7.70
2018-04-23T02:17:37.042Z,6.40
2018-04-23T02:20:04.634Z,7.13
2018-04-23T02:22:32.199Z,7.70
2018-04-23T02:24:59.752Z,6.50
2018-04-23T02:27:27.428Z,6.73
2018-04-23T02:29:55.016Z,6.27
2018-04-23T02:32:22.750Z,8.17
2018-04-23T02:34:50.370Z,7.07
2018-04-23T02:37:17.932Z,6.23
2018-04-23T02:39:45.575Z,7.07
2018-04-23T02:42:13.415Z,7.67
2018-04-23T02:44:40.974Z,7.77
2018-04-23T02:47:08.725Z,8.57
2018-04-23T02:49:36.407Z,8.77
2018-04-23T02:52:03.988Z,8.87
2018-04-23T02:54:31.551Z,8.07
2018-04-23T02:56:59.155Z,8.60
2018-04-23T02:59:26.729Z,8.80
2018-04-23T03:01:54.289Z,8.47
2018-04-23T03:04:21.946Z,7.90
2018-04-23T03:06:49.496Z,7.80
2018-04-23T03:09:17.066Z,10.13
2018-04-23T03:11:44.671Z,10.47
2018-04-23T03:14:12.235Z,8.80
2018-04-23T03:16:39.837Z,8.50
2018-04-23T03:19:07.714Z,14.30
2018-04-23T03:21:35.378Z,9.30
2018-04-23T03:24:03.035Z,8.80
2018-04-23T03:26:30.635Z,9.30
2018-04-23T03:28:58.218Z,11.03
2018-04-23T03:31:25.829Z,9.07
2018-04-23T03:33:53.508Z,8.27
2018-04-23T03:36:21.168Z,8.10
2018-04-23T03:38:48.830Z,7.73
2018-04-23T03:41:16.455Z,7.70
2018-04-23T03:43:44.030Z,7.60
2018-04-23T03:46:11.798Z,6.90
2018-04-23T03:48:39.422Z,6.50
2018-04-23T03:51:06.984Z,8.50
2018-04-23T03:53:34.797Z,8.47
2018-04-23T03:56:02.409Z,6.93
2018-04-23T03:58:29.996Z,7.20
2018-04-23T04:00:57.583Z,7.10
2018-04-23T04:03:25.246Z,5.90
2018-04-23T04:05:52.906Z,6.57
2018-04-23T04:08:20.483Z,5.13
2018-04-23T04:10:48.219Z,7.07
2018-04-23T04:13:27.449Z,6.03
2018-04-23T04:16:06.904Z,6.73
2018-04-23T04:18:45.614Z,5.47
2018-04-23T04:21:13.278Z,5.70
2018-04-23T04:23:40.865Z,6.90
2018-04-23T04:26:09.659Z,5.63
2018-04-23T04:28:37.284Z,5.20
2018-04-23T04:31:04.891Z,5.80
2018-04-23T04:33:32.481Z,3.70
2018-04-23T04:36:00.110Z,4.33
2018-04-23T04:38:27.692Z,3.93
2018-04-23T04:40:55.273Z,5.20
2018-04-23T04:43:23.069Z,4.33
2018-04-23T04:45:50.676Z,4.10
2018-04-23T04:48:18.258Z,4.77
2018-04-23T04:50:45.885Z,4.83
2018-04-23T04:53:13.540Z,5.10
2018-04-23T04:55:41.141Z,4.73
2018-04-23T04:58:08.753Z,4.83
2018-04-23T05:00:36.340Z,5.13
2018-04-23T05:03:03.932Z,4.93
2018-04-23T05:05:31.559Z,8.20
2018-04-23T05:07:59.141Z,4.17
2018-04-23T05:10:26.770Z,3.93
2018-04-23T05:12:54.387Z,7.80
2018-04-23T05:15:21.976Z,3.50
2018-04-23T05:17:49.546Z,3.50
2018-04-23T05:20:17.165Z,4.80
2018-04-23T05:22:44.756Z,6.50
2018-04-23T05:25:12.348Z,3.60
2018-04-23T05:27:39.959Z,4.27
2018-04-23T05:30:07.531Z,4.33
2018-04-23T05:32:35.123Z,4.80
2018-04-23T05:35:02.748Z,5.07
2018-04-23T05:37:30.332Z,3.10
2018-04-23T05:39:58.275Z,3.80
2018-04-23T05:42:25.898Z,3.83
2018-04-23T05:44:53.473Z,4.20
2018-04-23T05:47:21.263Z,5.70
2018-04-23T05:49:49.115Z,5.10
2018-04-23T05:52:16.755Z,5.70
2018-04-23T05:54:44.439Z,4.20
2018-04-23T05:57:12.118Z,4.90
2018-04-23T05:59:39.769Z,3.63
2018-04-23T06:02:07.440Z,4.17
2018-04-23T06:04:35.087Z,3.43
2018-04-23T06:07:02.773Z,3.50
2018-04-23T06:09:30.367Z,3.63
2018-04-23T06:11:58.075Z,3.00
2018-04-23T06:14:25.690Z,2.83
2018-04-23T06:16:53.276Z,3.60
2018-04-23T06:19:20.876Z,3.67
2018-04-23T06:21:48.515Z,3.07
2018-04-23T06:24:16.092Z,2.53
2018-04-23T06:26:43.709Z,2.90
2018-04-23T06:29:11.293Z,5.10
2018-04-23T06:31:38.868Z,3.53
2018-04-23T06:34:06.487Z,5.10
2018-04-23T06:36:34.077Z,5.60
2018-04-23T06:39:01.683Z,7.70
2018-04-23T06:41:29.300Z,6.53
2018-04-23T06:43:56.875Z,5.23
2018-04-23T06:46:24.448Z,4.93
2018-04-23T06:48:52.064Z,3.33
2018-04-23T06:51:19.643Z,2.67
2018-04-23T06:53:47.221Z,5.13
2018-04-23T06:56:14.831Z,3.30
2018-04-23T06:58:42.445Z,2.20
2018-04-23T07:01:10.022Z,2.63
2018-04-23T07:03:37.635Z,2.97
2018-04-23T07:06:05.209Z,2.30
2018-04-23T07:08:32.789Z,2.83
2018-04-23T07:11:00.399Z,2.73
2018-04-23T07:13:27.975Z,3.47
2018-04-23T07:15:55.553Z,2.27
2018-04-23T07:18:23.170Z,4.50
2018-04-23T07:20:50.737Z,3.00
2018-04-23T07:23:18.362Z,2.37
2018-04-23T07:25:46.102Z,3.20
2018-04-23T07:28:13.678Z,2.13
2018-04-23T07:30:41.262Z,4.07
2018-04-23T07:33:08.871Z,2.50
2018-04-23T07:35:36.456Z,3.00
2018-04-23T07:38:04.051Z,2.97
2018-04-23T07:40:31.673Z,2.63
2018-04-23T07:42:59.270Z,2.80
2018-04-23T07:45:26.847Z,2.80
2018-04-23T07:47:54.507Z,3.63
2018-04-23T07:50:22.070Z,2.93
2018-04-23T07:52:49.652Z,2.67
2018-04-23T07:55:17.249Z,3.80
2018-04-23T07:57:44.827Z,2.57
2018-04-23T08:00:12.416Z,2.63
2018-04-23T08:02:40.032Z,2.20
2018-04-23T08:05:07.614Z,2.37
2018-04-23T08:07:35.192Z,2.80
2018-04-23T08:10:02.817Z,2.23
2018-04-23T08:12:30.401Z,2.40
2018-04-23T08:14:57.989Z,2.27
2018-04-23T08:17:25.693Z,2.40
2018-04-23T08:19:53.275Z,3.20
2018-04-23T08:22:20.857Z,2.67
2018-04-23T08:24:48.482Z,2.40
2018-04-23T08:27:16.072Z,2.28
2018-04-23T08:29:43.651Z,2.25
2018-04-23T08:32:11.255Z,2.40
2018-04-23T08:34:38.827Z,2.60
2018-04-23T08:37:06.408Z,2.37
2018-04-23T08:39:34.034Z,2.22
2018-04-23T08:42:01.639Z,2.92
2018-04-23T08:44:29.219Z,2.10
2018-04-23T08:46:56.920Z,2.50
2018-04-23T08:49:24.512Z,2.00
2018-04-23T08:51:52.095Z,2.37
2018-04-23T08:54:19.712Z,2.70
2018-04-23T08:56:47.292Z,2.15
2018-04-23T08:59:14.874Z,2.30
2018-04-23T09:01:42.494Z,3.20
2018-04-23T09:04:10.070Z,2.25
2018-04-23T09:06:37.648Z,2.05
2018-04-23T09:09:06.133Z,1.77
2018-04-23T09:11:33.712Z,2.90
2018-04-23T09:14:01.287Z,2.12
2018-04-23T09:16:28.913Z,2.33
2018-04-23T09:18:56.488Z,2.10
2018-04-23T09:21:24.099Z,2.05
2018-04-23T09:23:51.707Z,2.15
2018-04-23T09:26:19.295Z,2.33
2018-04-23T09:28:46.875Z,1.67
2018-04-23T09:31:14.532Z,2.80
2018-04-23T09:33:42.114Z,1.83
2018-04-23T09:36:09.701Z,2.20
2018-04-23T09:38:37.340Z,2.10
2018-04-23T09:41:04.925Z,2.00
2018-04-23T09:43:32.491Z,2.10
2018-04-23T09:46:00.120Z,1.90
2018-04-23T09:48:27.713Z,2.15
2018-04-23T09:50:55.321Z,2.33
2018-04-23T09:53:22.922Z,4.22
2018-04-23T09:55:50.522Z,2.17
2018-04-23T09:58:18.381Z,2.20
2018-04-23T10:00:46.080Z,1.87
2018-04-23T10:03:13.653Z,3.25
2018-04-23T10:05:41.242Z,1.62
2018-04-23T10:08:08.855Z,13.88
2018-04-23T10:10:36.428Z,2.10
2018-04-23T10:13:04.075Z,3.00
2018-04-23T10:15:31.689Z,2.35
2018-04-23T10:17:59.268Z,1.87
2018-04-23T10:20:27.043Z,2.60
2018-04-23T10:22:54.719Z,1.98
2018-04-23T10:25:22.279Z,2.37
2018-04-23T10:27:49.851Z,2.45
2018-04-23T10:30:17.490Z,2.78
2018-04-23T10:32:45.215Z,2.55
2018-04-23T10:35:12.843Z,2.00
2018-04-23T10:37:40.698Z,2.60
2018-04-23T10:40:08.275Z,2.60
2018-04-23T10:42:36.024Z,2.10
2018-04-23T10:45:03.874Z,2.62
2018-04-23T10:47:31.448Z,2.25
2018-04-23T10:49:59.020Z,4.00
2018-04-23T10:52:26.617Z,2.17
2018-04-23T10:54:54.182Z,2.40
2018-04-23T10:57:21.824Z,2.37
2018-04-23T10:59:49.642Z,2.62
2018-04-23T11:02:17.223Z,2.00
2018-04-23T11:04:44.981Z,2.22
2018-04-23T11:07:12.586Z,2.65
2018-04-23T11:09:40.242Z,2.28
2018-04-23T11:12:07.764Z,1.92
2018-04-23T11:14:35.488Z,2.00
2018-04-23T11:17:03.453Z,2.12
2018-04-23T11:19:31.158Z,2.03
2018-04-23T11:24:32.489Z,2.90
2018-04-23T11:27:00.291Z,3.28
2018-04-23T11:29:27.925Z,2.12
2018-04-23T11:31:55.716Z,2.40
2018-04-23T11:34:23.465Z,2.47
2018-04-23T11:36:51.061Z,2.40
2018-04-23T11:39:18.635Z,3.00
2018-04-23T11:41:46.478Z,2.40
2018-04-23T11:44:14.061Z,1.92
2018-04-23T11:46:41.779Z,2.72
2018-04-23T11:49:09.393Z,2.15
2018-04-23T11:51:36.985Z,2.45
2018-04-23T11:54:04.788Z,2.30
2018-04-23T11:56:32.408Z,2.45
2018-04-23T11:59:00.106Z,2.78
2018-04-23T12:01:27.768Z,1.92
2018-04-23T12:03:55.373Z,2.00
2018-04-23T12:06:22.957Z,2.60
2018-04-23T12:08:50.527Z,3.47
2018-04-23T12:11:18.416Z,1.90
2018-04-23T12:13:46.077Z,1.85
2018-04-23T12:16:13.794Z,2.62
2018-04-23T12:18:41.386Z,1.95
2018-04-23T12:21:08.965Z,2.47
2018-04-23T12:23:36.540Z,2.30
2018-04-23T12:26:04.149Z,2.35
2018-04-23T12:28:31.719Z,2.10
2018-04-23T12:30:59.303Z,2.62
2018-04-23T12:33:26.928Z,2.00
2018-04-23T12:35:54.505Z,1.92
2018-04-23T12:38:22.149Z,3.92
2018-04-23T12:40:49.811Z,4.25
2018-04-23T12:43:17.383Z,3.87
2018-04-23T12:45:44.941Z,2.15
2018-04-23T12:48:12.649Z,2.25
2018-04-23T12:50:40.232Z,2.22
2018-04-23T12:53:07.799Z,2.10
2018-04-23T12:55:35.422Z,2.58
2018-04-23T12:58:03.000Z,3.12
2018-04-23T13:00:30.570Z,2.85
2018-04-23T13:02:58.189Z,3.10
2018-04-23T13:05:25.769Z,3.70
2018-04-23T13:07:53.353Z,2.90
2018-04-23T13:10:20.956Z,3.13
2018-04-23T13:12:48.533Z,3.20
2018-04-23T13:15:16.110Z,3.37
2018-04-23T13:17:43.716Z,3.23
2018-04-23T13:20:11.301Z,3.77
2018-04-23T13:22:38.927Z,2.67
2018-04-23T13:25:06.520Z,3.13
2018-04-23T13:27:34.075Z,3.47
2018-04-23T13:30:01.649Z,2.63
2018-04-23T13:32:29.258Z,2.60
2018-04-23T13:34:56.826Z,3.13
2018-04-23T13:37:24.389Z,2.87
2018-04-23T13:39:52.032Z,3.53
2018-04-23T13:42:19.602Z,3.50
2018-04-23T13:44:47.166Z,3.87
2018-04-23T13:47:14.766Z,2.40
2018-04-23T13:49:42.314Z,2.60
2018-04-23T13:52:09.886Z,3.20
2018-04-23T13:54:37.473Z,3.20
2018-04-23T13:57:05.149Z,2.90
2018-04-23T13:59:32.742Z,2.80
2018-04-23T14:02:00.347Z,2.07
2018-04-23T14:04:27.911Z,3.30
2018-04-23T14:06:55.493Z,2.30
2018-04-23T14:09:23.072Z,2.80
2018-04-23T14:11:50.627Z,3.07
2018-04-23T14:14:18.182Z,2.83
2018-04-23T14:16:45.851Z,3.10
2018-04-23T14:19:13.420Z,2.60
2018-04-23T14:21:40.980Z,2.60
2018-04-23T14:24:08.575Z,3.07
2018-04-23T14:26:36.134Z,3.33
2018-04-23T14:29:03.701Z,3.23
2018-04-23T14:31:31.286Z,2.90
2018-04-23T14:33:58.859Z,2.60
2018-04-23T14:36:26.429Z,2.67
2018-04-23T14:38:54.045Z,2.67
2018-04-23T14:41:21.638Z,2.40
2018-04-23T14:43:49.205Z,4.67
2018-04-23T14:46:16.813Z,2.97
2018-04-23T14:48:44.387Z,4.87
2018-04-23T14:51:11.969Z,2.63
2018-04-23T14:53:39.570Z,3.23
2018-04-23T14:56:07.148Z,2.80
2018-04-23T14:58:34.816Z,3.47
2018-04-23T15:01:02.478Z,3.07
2018-04-23T15:03:30.077Z,2.70
2018-04-23T15:05:57.658Z,2.20
2018-04-23T15:08:25.303Z,3.40
2018-04-23T15:10:52.874Z,2.87
2018-04-23T15:13:20.438Z,3.00
2018-04-23T15:15:48.051Z,2.90
2018-04-23T15:18:15.615Z,2.97
2018-04-23T15:20:43.190Z,2.27
2018-04-23T15:23:10.816Z,5.50
2018-04-23T15:25:38.406Z,3.90
2018-04-23T15:28:05.981Z,5.30
2018-04-23T15:30:33.595Z,14.33
2018-04-23T15:33:01.187Z,18.63
2018-04-23T15:35:28.766Z,4.93
2018-04-23T15:37:56.372Z,6.80
2018-04-23T15:40:23.960Z,12.37
2018-04-23T15:42:51.545Z,6.63
2018-04-23T15:45:19.201Z,8.20
2018-04-23T15:47:46.779Z,4.67
2018-04-23T15:50:14.356Z,6.00
2018-04-23T15:52:41.982Z,3.90
2018-04-23T15:55:09.563Z,3.80
2018-04-23T15:57:37.139Z,4.37
2018-04-23T16:00:04.754Z,3.07
2018-04-23T16:02:32.348Z,3.50
2018-04-23T16:04:59.930Z,6.20
2018-04-23T16:07:27.540Z,6.53
2018-04-23T16:09:55.135Z,3.20
2018-04-23T16:12:22.724Z,3.20
2018-04-23T16:14:50.338Z,5.10
2018-04-23T16:17:17.911Z,5.87
2018-04-23T16:19:45.488Z,4.03
2018-04-23T16:22:13.090Z,4.67
2018-04-23T16:24:40.675Z,8.87
2018-04-23T16:27:08.262Z,5.20
2018-04-23T16:29:35.883Z,6.93
2018-04-23T16:32:03.462Z,6.50
2018-04-23T16:34:31.055Z,5.30
2018-04-23T16:36:58.664Z,6.10
2018-04-23T16:39:26.249Z,5.40
2018-04-23T16:41:53.831Z,5.10
2018-04-23T16:44:27.165Z,4.17
2018-04-23T16:46:49.076Z,5.80
2018-04-23T16:49:16.698Z,5.63
2018-04-23T16:51:44.318Z,4.33
2018-04-23T16:54:13.434Z,4.97
2018-04-23T16:56:41.030Z,6.37
2018-04-23T16:59:08.667Z,4.73
2018-04-23T17:01:36.240Z,4.83
2018-04-23T17:04:03.804Z,4.40
2018-04-23T17:06:31.414Z,3.90
2018-04-23T17:08:58.991Z,5.70
2018-04-23T17:11:26.601Z,4.70
2018-04-23T17:13:54.180Z,9.27
2018-04-23T17:16:21.800Z,5.40
2018-04-23T17:18:49.387Z,4.67
2018-04-23T17:21:16.974Z,4.67
2018-04-23T17:23:44.622Z,5.10
2018-04-23T17:26:12.319Z,4.50
2018-04-23T17:28:39.891Z,8.53
2018-04-23T17:31:08.415Z,6.13
2018-04-23T17:33:36.013Z,4.10
2018-04-23T17:36:03.590Z,5.40
2018-04-23T17:38:31.205Z,5.50
2018-04-23T17:40:58.784Z,4.13
2018-04-23T17:43:26.369Z,7.37
2018-04-23T17:45:53.988Z,6.20
2018-04-23T17:48:21.588Z,6.70
2018-04-23T17:50:49.163Z,7.90
2018-04-23T17:53:16.774Z,7.13
2018-04-23T17:55:44.353Z,5.43
2018-04-23T17:58:11.936Z,5.73
2018-04-23T18:00:39.598Z,5.70
2018-04-23T18:03:07.167Z,5.87
2018-04-23T18:05:34.738Z,5.53
2018-04-23T18:08:02.349Z,6.00
2018-04-23T18:10:29.944Z,7.33
2018-04-23T18:12:57.529Z,6.77
2018-04-23T18:15:25.161Z,6.90
2018-04-23T18:17:52.797Z,7.60
2018-04-23T18:20:20.385Z,6.40
2018-04-23T18:22:48.006Z,6.50
2018-04-23T18:25:15.588Z,7.37
2018-04-23T18:27:43.163Z,6.07
2018-04-23T18:30:10.785Z,6.77
2018-04-23T18:32:38.364Z,10.53
2018-04-23T18:35:05.998Z,5.70
2018-04-23T18:37:33.633Z,7.70
2018-04-23T18:40:01.225Z,7.17
2018-04-23T18:42:28.804Z,8.07
2018-04-23T18:44:56.401Z,5.20
2018-04-23T18:47:23.978Z,6.80
2018-04-23T18:49:51.574Z,7.87
2018-04-23T18:52:19.189Z,5.90
2018-04-23T18:54:46.774Z,5.90
2018-04-23T18:57:14.349Z,7.07
2018-04-23T18:59:41.956Z,5.73
2018-04-23T19:02:09.645Z,5.97
2018-04-23T19:04:37.264Z,6.67
2018-04-23T19:07:04.887Z,5.63
2018-04-23T19:09:32.486Z,5.73
2018-04-23T19:12:00.104Z,5.97
2018-04-23T19:14:27.728Z,5.77
2018-04-23T19:16:55.316Z,7.93
2018-04-23T19:19:22.905Z,6.37
2018-04-23T19:21:50.543Z,5.97
2018-04-23T19:24:18.176Z,6.83
2018-04-23T19:26:45.771Z,7.03
2018-04-23T19:29:13.390Z,6.30
2018-04-23T19:31:40.974Z,8.63
2018-04-23T19:34:08.596Z,6.67
2018-04-23T19:36:36.196Z,7.40
2018-04-23T19:39:03.865Z,6.30
2018-04-23T19:41:31.434Z,5.63
2018-04-23T19:43:59.050Z,6.87
2018-04-23T19:46:26.634Z,6.20
2018-04-23T19:48:54.206Z,6.60
2018-04-23T19:51:21.842Z,6.67
2018-04-23T19:53:49.413Z,7.63
2018-04-23T19:56:16.997Z,7.70
2018-04-23T19:58:44.615Z,6.70
2018-04-23T20:01:12.196Z,7.07
2018-04-23T20:03:39.760Z,5.70
2018-04-23T20:06:07.352Z,6.80
2018-04-23T20:08:34.934Z,7.33
2018-04-23T20:11:02.516Z,7.23
2018-04-23T20:13:30.421Z,7.20
2018-04-23T20:15:57.988Z,7.27
2018-04-23T20:18:25.555Z,6.93
2018-04-23T20:20:53.172Z,7.83
2018-04-23T20:23:20.805Z,7.60
2018-04-23T20:25:48.394Z,7.30
2018-04-23T20:28:16.013Z,7.57
2018-04-23T20:30:43.586Z,7.47
2018-04-23T20:33:11.160Z,7.90
2018-04-23T20:35:38.871Z,7.93
2018-04-23T20:38:06.700Z,7.20
2018-04-23T20:40:34.263Z,6.93
2018-04-23T20:43:02.021Z,7.13
2018-04-23T20:45:29.583Z,7.87
2018-04-23T20:47:57.154Z,6.70
2018-04-23T20:50:24.804Z,6.87
2018-04-23T20:52:52.386Z,6.30
2018-04-23T20:55:19.969Z,5.23
2018-04-23T20:57:47.600Z,6.10
2018-04-23T21:00:15.169Z,7.50
2018-04-23T21:02:42.755Z,6.40
2018-04-23T21:05:10.376Z,6.37
2018-04-23T21:07:37.951Z,6.13
2018-04-23T21:10:05.695Z,6.50
2018-04-23T21:12:33.316Z,6.90
2018-04-23T21:15:00.887Z,6.73
2018-04-23T21:17:28.662Z,6.43
2018-04-23T21:19:56.264Z,7.17
2018-04-23T21:22:24.253Z,8.93
2018-04-23T21:24:52.208Z,10.23
2018-04-23T21:27:19.931Z,6.03
2018-04-23T21:29:47.593Z,8.43
2018-04-23T21:32:15.172Z,7.40
2018-04-23T21:34:42.787Z,8.20
2018-04-23T21:37:10.585Z,7.23
2018-04-23T21:39:38.253Z,8.13
2018-04-23T21:42:05.862Z,7.93
2018-04-23T21:44:33.440Z,8.47
2018-04-23T21:47:01.017Z,8.67
2018-04-23T21:49:28.701Z,7.60
2018-04-23T21:51:56.352Z,7.93
2018-04-23T21:54:24.027Z,8.10
2018-04-23T21:56:51.668Z,8.33
2018-04-23T21:59:19.218Z,8.83
2018-04-23T22:01:46.792Z,8.90
2018-04-23T22:04:14.400Z,7.73
2018-04-23T22:06:41.984Z,8.40
2018-04-23T22:09:09.781Z,9.10
2018-04-23T22:11:37.362Z,9.47
2018-04-23T22:14:04.982Z,9.40
2018-04-23T22:16:32.774Z,9.87
2018-04-23T22:19:00.418Z,8.70
2018-04-23T22:21:27.983Z,9.27
2018-04-23T22:23:55.549Z,10.33
2018-04-23T22:26:23.164Z,8.97
2018-04-23T22:28:50.734Z,9.50
2018-04-23T22:31:18.535Z,9.13
2018-04-23T22:33:46.127Z,9.90
2018-04-23T22:36:13.699Z,9.33
2018-04-23T22:38:41.328Z,10.90
2018-04-23T22:41:08.985Z,9.20
2018-04-23T22:43:36.567Z,10.40
2018-04-23T22:46:04.154Z,8.37
2018-04-23T22:48:31.778Z,9.33
2018-04-23T22:50:59.351Z,9.17
2018-04-23T22:53:26.932Z,8.57
2018-04-23T22:55:54.557Z,9.00
2018-04-23T22:58:22.178Z,8.80
2018-04-23T23:00:49.760Z,9.73
2018-04-23T23:03:17.408Z,9.20
2018-04-23T23:05:45.001Z,10.03
2018-04-23T23:08:12.580Z,8.70
2018-04-23T23:10:40.212Z,10.13
2018-04-23T23:13:07.786Z,9.47
2018-04-23T23:15:35.374Z,9.07
2018-04-23T23:18:02.970Z,9.10
2018-04-23T23:20:30.543Z,8.30
2018-04-23T23:22:58.125Z,9.60
2018-04-23T23:25:25.875Z,10.30
2018-04-23T23:27:53.460Z,9.27
2018-04-23T23:30:21.191Z,9.60
2018-04-23T23:32:48.818Z,9.80
2018-04-23T23:35:16.408Z,8.83
2018-04-23T23:37:44.046Z,10.17
2018-04-23T23:40:11.664Z,9.90
2018-04-23T23:42:39.256Z,9.70
2018-04-23T23:45:06.845Z,9.53
2018-04-23T23:47:34.472Z,11.10
2018-04-23T23:50:02.081Z,10.23
2018-04-23T23:52:29.660Z,9.97
2018-04-23T23:54:57.286Z,9.73
2018-04-23T23:57:24.867Z,8.70
2018-04-23T23:59:52.544Z,8.83
